createdAt,value
2022-10-22T00:01:17.897Z,13.65
2022-10-22T00:03:45.486Z,13.65
2022-10-22T00:06:13.052Z,13.64
2022-10-22T00:08:40.732Z,13.66
2022-10-22T00:11:14.014Z,13.73
2022-10-22T00:13:41.996Z,13.70
2022-10-22T00:16:11.215Z,13.73
2022-10-22T00:18:39.423Z,13.70
2022-10-22T00:21:08.381Z,13.70
2022-10-22T00:23:36.133Z,13.69
2022-10-22T00:26:03.751Z,13.75
2022-10-22T00:28:31.350Z,13.74
2022-10-22T00:30:59.036Z,13.77
2022-10-22T00:33:28.876Z,13.73
2022-10-22T00:35:56.495Z,13.71
2022-10-22T00:38:24.071Z,13.70
2022-10-22T00:40:51.780Z,13.76
2022-10-22T00:43:20.522Z,13.80
2022-10-22T00:45:48.010Z,13.73
2022-10-22T00:48:19.839Z,13.70
2022-10-22T00:50:52.541Z,13.62
2022-10-22T00:53:22.879Z,13.56
2022-10-22T00:55:53.935Z,13.58
2022-10-22T00:58:25.751Z,13.55
2022-10-22T01:00:53.536Z,13.50
2022-10-22T01:03:21.162Z,13.49
2022-10-22T01:05:56.628Z,13.52
2022-10-22T01:08:32.721Z,13.50
2022-10-22T01:11:09.483Z,13.55
2022-10-22T01:13:48.537Z,13.58
2022-10-22T01:16:24.631Z,13.56
2022-10-22T01:18:58.863Z,13.53
2022-10-22T01:21:33.956Z,13.56
2022-10-22T01:24:21.311Z,13.54
2022-10-22T01:27:08.186Z,13.52
2022-10-22T01:29:42.643Z,13.55
2022-10-22T01:32:15.371Z,13.63
2022-10-22T01:34:45.857Z,13.50
2022-10-22T01:37:16.279Z,13.56
2022-10-22T01:39:46.465Z,13.59
2022-10-22T01:42:14.592Z,13.51
2022-10-22T01:44:43.763Z,13.59
2022-10-22T01:47:25.333Z,13.49
2022-10-22T01:50:10.241Z,13.45
2022-10-22T01:52:49.361Z,13.54
2022-10-22T01:55:27.021Z,13.56
2022-10-22T01:58:06.439Z,13.54
2022-10-22T02:00:40.081Z,13.61
2022-10-22T02:03:12.663Z,13.52
2022-10-22T02:05:46.974Z,13.53
2022-10-22T02:08:18.671Z,13.50
2022-10-22T02:10:48.404Z,13.52
2022-10-22T02:13:23.456Z,13.50
2022-10-22T02:15:54.246Z,13.55
2022-10-22T02:18:25.518Z,13.58
2022-10-22T02:20:54.693Z,13.52
2022-10-22T02:23:23.182Z,13.58
2022-10-22T02:25:54.668Z,13.65
2022-10-22T02:28:28.054Z,13.63
2022-10-22T02:31:02.720Z,13.65
2022-10-22T02:33:35.326Z,13.63
2022-10-22T02:36:04.553Z,13.62
2022-10-22T02:38:34.522Z,13.59
2022-10-22T02:41:02.497Z,13.54
2022-10-22T02:43:30.448Z,13.49
2022-10-22T02:45:59.345Z,13.53
2022-10-22T02:48:27.021Z,13.50
2022-10-22T02:50:54.563Z,13.51
2022-10-22T02:53:22.376Z,13.48
2022-10-22T02:55:49.940Z,13.46
2022-10-22T02:58:17.549Z,13.48
2022-10-22T03:00:45.167Z,13.46
2022-10-22T03:03:14.133Z,13.41
2022-10-22T03:05:41.769Z,13.37
2022-10-22T03:08:09.552Z,13.36
2022-10-22T03:10:37.147Z,13.34
2022-10-22T03:13:04.923Z,13.35
2022-10-22T03:15:32.464Z,13.33
2022-10-22T03:18:00.134Z,13.34
2022-10-22T03:20:29.132Z,13.38
2022-10-22T03:22:58.114Z,13.29
2022-10-22T03:25:28.634Z,13.30
2022-10-22T03:27:58.639Z,13.26
2022-10-22T03:30:26.188Z,13.26
2022-10-22T03:32:53.722Z,13.28
2022-10-22T03:35:21.693Z,13.26
2022-10-22T03:37:51.309Z,13.18
2022-10-22T03:40:19.349Z,13.19
2022-10-22T03:42:47.142Z,13.13
2022-10-22T03:45:14.702Z,13.13
2022-10-22T03:47:42.578Z,13.09
2022-10-22T03:50:11.358Z,13.05
2022-10-22T03:52:40.407Z,13.04
2022-10-22T03:55:11.013Z,12.99
2022-10-22T03:57:38.970Z,12.98
2022-10-22T04:00:08.371Z,12.89
2022-10-22T04:02:35.901Z,12.90
2022-10-22T04:05:03.577Z,12.94
2022-10-22T04:07:31.277Z,12.90
2022-10-22T04:09:58.858Z,12.94
2022-10-22T04:12:27.878Z,12.83
2022-10-22T04:14:55.440Z,12.74
2022-10-22T04:17:23.016Z,12.77
2022-10-22T04:19:50.583Z,12.79
2022-10-22T04:22:18.141Z,12.81
2022-10-22T04:24:45.726Z,12.85
2022-10-22T04:27:13.302Z,12.78
2022-10-22T04:29:42.245Z,12.79
2022-10-22T04:32:09.899Z,12.81
2022-10-22T04:34:37.542Z,12.86
2022-10-22T04:37:05.644Z,12.85
2022-10-22T04:39:33.286Z,12.82
2022-10-22T04:42:00.831Z,12.81
2022-10-22T04:44:28.399Z,12.85
2022-10-22T04:46:57.340Z,12.88
2022-10-22T04:49:24.930Z,12.87
2022-10-22T04:51:52.632Z,12.87
2022-10-22T04:54:20.244Z,12.81
2022-10-22T04:56:47.857Z,12.85
2022-10-22T04:59:15.425Z,12.84
2022-10-22T05:01:44.817Z,12.83
2022-10-22T05:04:18.000Z,12.83
2022-10-22T05:06:46.293Z,12.83
2022-10-22T05:09:16.277Z,12.83
2022-10-22T05:11:48.250Z,12.86
2022-10-22T05:14:17.676Z,12.82
2022-10-22T05:16:48.117Z,12.86
2022-10-22T05:19:21.448Z,12.82
2022-10-22T05:21:49.032Z,12.82
2022-10-22T05:24:17.304Z,12.79
2022-10-22T05:26:44.872Z,12.74
2022-10-22T05:29:12.412Z,12.77
2022-10-22T05:31:39.952Z,12.77
2022-10-22T05:34:07.542Z,12.73
2022-10-22T05:36:36.537Z,12.70
2022-10-22T05:39:04.625Z,12.68
2022-10-22T05:41:32.241Z,12.71
2022-10-22T05:44:01.043Z,12.67
2022-10-22T05:46:30.602Z,12.73
2022-10-22T05:49:00.621Z,12.73
2022-10-22T05:51:30.728Z,12.68
2022-10-22T05:54:01.598Z,12.74
2022-10-22T05:56:31.844Z,12.72
2022-10-22T05:58:59.945Z,12.80
2022-10-22T06:01:29.421Z,12.77
2022-10-22T06:03:58.877Z,12.78
2022-10-22T06:06:31.519Z,12.76
2022-10-22T06:09:05.896Z,12.80
2022-10-22T06:11:35.209Z,12.74
2022-10-22T06:14:03.614Z,12.76
2022-10-22T06:16:32.207Z,12.72
2022-10-22T06:19:00.883Z,12.71
2022-10-22T06:21:28.767Z,12.75
2022-10-22T06:23:57.626Z,12.81
2022-10-22T06:26:27.473Z,12.80
2022-10-22T06:28:55.817Z,12.81
2022-10-22T06:31:23.728Z,12.88
2022-10-22T06:33:51.350Z,12.87
2022-10-22T06:36:21.634Z,12.90
2022-10-22T06:38:52.479Z,12.92
2022-10-22T06:41:21.377Z,12.97
2022-10-22T06:43:52.175Z,13.00
2022-10-22T06:46:22.299Z,13.02
2022-10-22T06:48:51.004Z,13.05
2022-10-22T06:51:18.597Z,13.09
2022-10-22T06:53:46.598Z,13.08
2022-10-22T06:56:16.437Z,13.16
2022-10-22T06:58:44.134Z,13.16
2022-10-22T07:01:15.110Z,13.11
2022-10-22T07:03:43.231Z,13.19
2022-10-22T07:06:12.488Z,13.25
2022-10-22T07:08:41.158Z,13.25
2022-10-22T07:11:09.446Z,13.27
2022-10-22T07:13:37.454Z,13.37
2022-10-22T07:16:05.739Z,13.38
2022-10-22T07:18:35.443Z,13.41
2022-10-22T07:21:03.099Z,13.44
2022-10-22T07:23:31.061Z,13.48
2022-10-22T07:25:59.084Z,13.58
2022-10-22T07:28:27.912Z,13.53
2022-10-22T07:30:55.550Z,13.57
2022-10-22T07:33:23.107Z,13.67
2022-10-22T07:35:52.030Z,13.71
2022-10-22T07:38:19.650Z,13.74
2022-10-22T07:40:47.199Z,13.72
2022-10-22T07:43:15.185Z,13.76
2022-10-22T07:45:42.823Z,13.85
2022-10-22T07:48:10.346Z,13.89
2022-10-22T07:50:38.028Z,14.06
2022-10-22T07:53:07.128Z,13.98
2022-10-22T07:55:35.027Z,14.12
2022-10-22T07:58:02.843Z,14.17
2022-10-22T08:00:30.498Z,14.24
2022-10-22T08:02:58.061Z,14.34
2022-10-22T08:05:25.632Z,14.28
2022-10-22T08:07:53.321Z,14.34
2022-10-22T08:10:22.253Z,14.57
2022-10-22T08:12:49.908Z,14.53
2022-10-22T08:15:17.485Z,14.44
2022-10-22T08:17:45.137Z,14.42
2022-10-22T08:20:13.017Z,14.42
2022-10-22T08:22:40.636Z,14.35
2022-10-22T08:25:09.046Z,14.37
2022-10-22T08:27:38.795Z,14.44
2022-10-22T08:30:07.849Z,14.40
2022-10-22T08:32:35.414Z,14.57
2022-10-22T08:35:02.975Z,14.67
2022-10-22T08:37:30.555Z,14.93
2022-10-22T08:39:58.122Z,14.97
2022-10-22T08:43:06.860Z,14.77
2022-10-22T08:45:41.677Z,14.79
2022-10-22T08:48:21.056Z,14.84
2022-10-22T08:50:50.827Z,14.88
2022-10-22T08:53:20.895Z,14.93
2022-10-22T08:55:50.654Z,14.97
2022-10-22T08:58:26.756Z,15.00
2022-10-22T09:00:59.948Z,15.02
2022-10-22T09:03:39.237Z,15.12
2022-10-22T09:06:11.936Z,14.90
2022-10-22T09:08:40.834Z,15.03
2022-10-22T09:11:18.615Z,15.04
2022-10-22T09:13:49.285Z,15.00
2022-10-22T09:16:19.851Z,15.07
2022-10-22T09:19:06.900Z,15.05
2022-10-22T09:21:44.934Z,15.03
2022-10-22T09:24:14.590Z,15.22
2022-10-22T09:26:42.691Z,15.16
2022-10-22T09:29:22.462Z,15.33
2022-10-22T09:31:50.215Z,15.30
2022-10-22T09:34:22.173Z,15.54
2022-10-22T09:36:58.667Z,15.54
2022-10-22T09:39:27.836Z,15.63
2022-10-22T09:41:55.507Z,15.67
2022-10-22T09:44:24.881Z,15.72
2022-10-22T09:46:52.826Z,16.03
2022-10-22T09:49:23.856Z,15.96
2022-10-22T09:51:54.925Z,15.81
2022-10-22T09:54:24.855Z,15.91
2022-10-22T09:56:55.583Z,16.08
2022-10-22T09:59:31.768Z,15.84
2022-10-22T10:02:13.658Z,15.95
2022-10-22T10:04:50.198Z,16.15
2022-10-22T10:07:19.500Z,16.13
2022-10-22T10:09:47.834Z,16.20
2022-10-22T10:12:28.026Z,16.06
2022-10-22T10:15:04.742Z,16.02
2022-10-22T10:17:37.544Z,15.77
2022-10-22T10:20:22.889Z,15.80
2022-10-22T10:22:59.106Z,15.97
2022-10-22T10:25:43.219Z,15.85
2022-10-22T10:28:21.357Z,15.91
2022-10-22T10:31:03.421Z,15.84
2022-10-22T10:33:40.331Z,16.03
2022-10-22T10:36:20.421Z,15.92
2022-10-22T10:38:59.136Z,16.01
2022-10-22T10:41:38.796Z,16.36
2022-10-22T10:44:23.692Z,16.29
2022-10-22T10:47:00.649Z,16.14
2022-10-22T10:49:31.916Z,16.27
2022-10-22T10:52:10.444Z,16.46
2022-10-22T10:54:44.798Z,16.63
2022-10-22T10:57:22.189Z,16.53
2022-10-22T11:00:03.728Z,16.38
2022-10-22T11:03:02.491Z,16.53
2022-10-22T11:05:37.229Z,16.58
2022-10-22T11:08:11.827Z,16.55
2022-10-22T11:10:42.948Z,16.59
2022-10-22T11:13:19.837Z,16.66
2022-10-22T11:15:53.065Z,16.76
2022-10-22T11:18:29.876Z,16.81
2022-10-22T11:21:08.672Z,16.79
2022-10-22T11:23:42.619Z,16.94
2022-10-22T11:26:20.417Z,16.97
2022-10-22T11:28:53.226Z,16.98
2022-10-22T11:31:21.002Z,16.85
2022-10-22T11:34:04.796Z,16.92
2022-10-22T11:36:39.096Z,17.02
2022-10-22T11:39:06.688Z,17.06
2022-10-22T11:41:35.864Z,17.09
2022-10-22T11:44:11.315Z,16.97
2022-10-22T11:46:47.286Z,16.79
2022-10-22T11:49:24.673Z,17.02
2022-10-22T11:52:06.288Z,17.09
2022-10-22T11:54:46.004Z,17.09
2022-10-22T11:57:20.756Z,17.34
2022-10-22T11:59:54.804Z,17.58
2022-10-22T12:02:32.445Z,17.51
2022-10-22T12:05:33.090Z,17.58
2022-10-22T12:08:04.475Z,17.60
2022-10-22T12:10:49.211Z,17.54
2022-10-22T12:13:23.318Z,17.48
2022-10-22T12:15:55.530Z,17.40
2022-10-22T12:18:26.367Z,17.31
2022-10-22T12:20:56.174Z,17.40
2022-10-22T12:23:30.033Z,17.19
2022-10-22T12:25:58.288Z,17.18
2022-10-22T12:28:25.977Z,17.17
2022-10-22T12:30:53.553Z,17.12
2022-10-22T12:33:22.595Z,17.33
2022-10-22T12:35:54.070Z,17.40
2022-10-22T12:38:25.491Z,17.27
2022-10-22T12:40:57.059Z,17.38
2022-10-22T12:43:27.480Z,17.28
2022-10-22T12:45:57.552Z,17.54
2022-10-22T12:48:28.152Z,17.51
2022-10-22T12:50:59.309Z,17.40
2022-10-22T12:53:31.969Z,17.18
2022-10-22T12:56:05.307Z,17.49
2022-10-22T12:58:39.235Z,17.43
2022-10-22T13:01:07.570Z,17.43
2022-10-22T13:03:38.448Z,17.39
2022-10-22T13:06:23.797Z,17.44
2022-10-22T13:09:07.325Z,17.53
2022-10-22T13:11:38.769Z,17.53
2022-10-22T13:14:22.375Z,17.48
2022-10-22T13:17:12.706Z,17.47
2022-10-22T13:19:44.209Z,17.50
2022-10-22T13:22:30.451Z,17.53
2022-10-22T13:25:00.784Z,17.63
2022-10-22T13:27:29.295Z,17.53
2022-10-22T13:29:59.649Z,17.52
2022-10-22T13:32:31.483Z,17.53
2022-10-22T13:35:00.893Z,17.52
2022-10-22T13:37:31.080Z,17.54
2022-10-22T13:40:00.046Z,17.46
2022-10-22T13:42:27.648Z,17.57
2022-10-22T13:44:55.290Z,17.50
2022-10-22T13:47:27.649Z,17.47
2022-10-22T13:49:58.396Z,17.42
2022-10-22T13:52:32.611Z,17.34
2022-10-22T13:55:01.696Z,17.19
2022-10-22T13:57:29.262Z,17.30
2022-10-22T13:59:56.845Z,17.31
2022-10-22T14:02:24.804Z,17.26
2022-10-22T14:04:53.517Z,17.26
2022-10-22T14:07:21.790Z,17.04
2022-10-22T14:09:49.441Z,17.15
2022-10-22T14:12:18.424Z,17.03
2022-10-22T14:14:46.051Z,16.92
2022-10-22T14:17:16.720Z,16.97
2022-10-22T14:19:46.622Z,16.91
2022-10-22T14:22:18.869Z,16.92
2022-10-22T14:24:47.646Z,17.03
2022-10-22T14:27:17.709Z,16.96
2022-10-22T14:29:45.278Z,17.18
2022-10-22T14:32:15.760Z,17.15
2022-10-22T14:34:43.474Z,17.15
2022-10-22T14:37:18.342Z,17.30
2022-10-22T14:39:51.709Z,17.24
2022-10-22T14:42:20.919Z,17.19
2022-10-22T14:44:48.475Z,16.93
2022-10-22T14:47:16.050Z,17.06
2022-10-22T14:49:43.662Z,16.83
2022-10-22T14:52:14.197Z,16.99
2022-10-22T14:54:42.600Z,16.84
2022-10-22T14:57:11.340Z,16.92
2022-10-22T14:59:40.460Z,17.09
2022-10-22T15:02:09.974Z,17.13
2022-10-22T15:04:37.772Z,16.92
2022-10-22T15:07:05.323Z,16.94
2022-10-22T15:09:32.932Z,17.03
2022-10-22T15:12:00.514Z,16.93
2022-10-22T15:14:28.059Z,16.73
2022-10-22T15:16:56.997Z,16.89
2022-10-22T15:19:24.638Z,16.77
2022-10-22T15:21:52.451Z,16.90
2022-10-22T15:24:20.070Z,16.92
2022-10-22T15:26:47.646Z,16.88
2022-10-22T15:29:15.243Z,17.11
2022-10-22T15:31:46.740Z,16.80
2022-10-22T15:34:19.675Z,16.56
2022-10-22T15:36:47.324Z,16.61
2022-10-22T15:39:15.239Z,16.54
2022-10-22T15:41:42.849Z,16.54
2022-10-22T15:44:16.478Z,16.55
2022-10-22T15:46:44.465Z,16.67
2022-10-22T15:49:12.359Z,16.58
2022-10-22T15:51:41.769Z,16.49
2022-10-22T15:54:14.759Z,16.42
2022-10-22T15:56:42.666Z,16.38
2022-10-22T15:59:12.461Z,16.29
2022-10-22T16:01:40.694Z,16.25
2022-10-22T16:04:08.774Z,16.24
2022-10-22T16:06:39.338Z,16.09
2022-10-22T16:09:10.551Z,15.86
2022-10-22T16:11:39.133Z,15.73
2022-10-22T16:14:07.403Z,15.73
2022-10-22T16:16:39.398Z,15.50
2022-10-22T16:19:07.225Z,15.60
2022-10-22T16:21:34.805Z,15.62
2022-10-22T16:24:06.108Z,15.58
2022-10-22T16:26:36.060Z,15.58
2022-10-22T16:29:04.020Z,15.54
2022-10-22T16:31:31.620Z,15.45
2022-10-22T16:33:59.241Z,15.39
2022-10-22T16:36:26.903Z,15.24
2022-10-22T16:38:54.560Z,15.23
2022-10-22T16:41:24.210Z,15.19
2022-10-22T16:43:56.040Z,15.14
2022-10-22T16:46:23.908Z,15.10
2022-10-22T16:48:53.409Z,15.02
2022-10-22T16:51:22.839Z,14.98
2022-10-22T16:53:52.779Z,14.90
2022-10-22T16:56:20.682Z,14.88
2022-10-22T16:58:50.049Z,14.79
2022-10-22T17:01:20.424Z,14.70
2022-10-22T17:03:48.340Z,14.63
2022-10-22T17:06:16.390Z,14.49
2022-10-22T17:08:44.361Z,14.51
2022-10-22T17:11:14.081Z,14.46
2022-10-22T17:13:42.598Z,14.41
2022-10-22T17:16:12.996Z,14.32
2022-10-22T17:18:43.455Z,14.29
2022-10-22T17:21:12.925Z,14.23
2022-10-22T17:23:42.416Z,14.19
2022-10-22T17:26:15.971Z,14.15
2022-10-22T17:28:44.125Z,14.11
2022-10-22T17:31:17.941Z,14.09
2022-10-22T17:33:47.448Z,14.06
2022-10-22T17:36:15.846Z,14.03
2022-10-22T17:38:45.308Z,13.97
2022-10-22T17:41:18.802Z,13.92
2022-10-22T17:43:47.446Z,13.90
2022-10-22T17:46:18.472Z,13.89
2022-10-22T17:48:50.067Z,14.07
2022-10-22T17:51:18.453Z,14.07
2022-10-22T17:53:46.634Z,13.99
2022-10-22T17:56:16.535Z,13.92
2022-10-22T17:58:44.661Z,13.85
2022-10-22T18:01:20.575Z,13.82
2022-10-22T18:03:50.068Z,13.79
2022-10-22T18:06:17.923Z,13.75
2022-10-22T18:08:45.685Z,13.69
2022-10-22T18:11:17.643Z,13.62
2022-10-22T18:13:47.522Z,13.62
2022-10-22T18:16:15.432Z,13.58
2022-10-22T18:18:46.301Z,13.54
2022-10-22T18:21:15.540Z,13.49
2022-10-22T18:23:43.435Z,13.49
2022-10-22T18:26:11.070Z,13.46
2022-10-22T18:28:38.744Z,13.44
2022-10-22T18:31:07.789Z,13.38
2022-10-22T18:33:36.305Z,13.38
2022-10-22T18:36:06.176Z,13.37
2022-10-22T18:38:35.630Z,13.33
2022-10-22T18:41:03.264Z,13.30
2022-10-22T18:43:30.805Z,13.33
2022-10-22T18:45:58.641Z,13.31
2022-10-22T18:48:26.370Z,13.56
2022-10-22T18:51:00.725Z,13.54
2022-10-22T18:53:28.542Z,13.42
2022-10-22T18:55:57.817Z,13.40
2022-10-22T18:58:25.442Z,13.35
2022-10-22T19:00:53.398Z,13.29
2022-10-22T19:03:21.011Z,13.30
2022-10-22T19:05:50.663Z,13.26
2022-10-22T19:08:19.072Z,13.20
2022-10-22T19:10:46.829Z,13.14
2022-10-22T19:13:17.461Z,13.12
2022-10-22T19:15:45.620Z,13.09
2022-10-22T19:18:15.044Z,13.06
2022-10-22T19:20:44.564Z,13.09
2022-10-22T19:23:12.154Z,13.05
2022-10-22T19:25:40.088Z,12.95
2022-10-22T19:28:07.699Z,12.98
2022-10-22T19:30:36.693Z,12.96
2022-10-22T19:33:04.773Z,12.93
2022-10-22T19:35:32.385Z,12.90
2022-10-22T19:38:00.085Z,12.91
2022-10-22T19:40:28.304Z,12.91
2022-10-22T19:42:55.831Z,12.89
2022-10-22T19:45:23.608Z,12.88
2022-10-22T19:47:52.555Z,12.86
2022-10-22T19:50:20.143Z,12.87
2022-10-22T19:52:47.707Z,12.86
2022-10-22T19:55:15.376Z,12.85
2022-10-22T19:57:43.265Z,12.80
2022-10-22T20:00:12.609Z,12.76
2022-10-22T20:02:40.218Z,12.77
2022-10-22T20:05:09.987Z,12.74
2022-10-22T20:07:37.683Z,12.73
2022-10-22T20:10:06.102Z,12.46
2022-10-22T20:12:33.938Z,12.71
2022-10-22T20:15:01.624Z,12.70
2022-10-22T20:17:29.184Z,12.66
2022-10-22T20:19:56.926Z,12.65
2022-10-22T20:22:26.039Z,12.65
2022-10-22T20:24:54.299Z,12.66
2022-10-22T20:27:22.342Z,12.64
2022-10-22T20:29:49.951Z,12.65
2022-10-22T20:32:17.602Z,12.63
2022-10-22T20:34:45.237Z,12.62
2022-10-22T20:37:12.922Z,12.61
2022-10-22T20:39:41.907Z,12.60
2022-10-22T20:42:09.580Z,12.60
2022-10-22T20:44:37.247Z,12.56
2022-10-22T20:47:05.053Z,12.54
2022-10-22T20:49:33.197Z,12.52
2022-10-22T20:52:00.771Z,12.53
2022-10-22T20:54:28.518Z,12.50
2022-10-22T20:56:58.416Z,12.47
2022-10-22T20:59:32.430Z,12.43
2022-10-22T21:02:01.653Z,12.49
2022-10-22T21:04:29.793Z,12.47
2022-10-22T21:06:58.104Z,12.47
2022-10-22T21:09:25.978Z,12.49
2022-10-22T21:14:28.374Z,12.45
2022-10-22T21:16:56.250Z,12.44
2022-10-22T21:19:24.136Z,12.40
2022-10-22T21:21:51.895Z,12.41
2022-10-22T21:24:19.810Z,12.38
2022-10-22T21:26:47.407Z,12.38
2022-10-22T21:29:15.120Z,12.36
2022-10-22T21:31:44.363Z,12.41
2022-10-22T21:34:13.358Z,12.39
2022-10-22T21:36:41.048Z,12.40
2022-10-22T21:39:09.581Z,12.40
2022-10-22T21:41:37.875Z,12.40
2022-10-22T21:44:05.692Z,12.38
2022-10-22T21:46:33.272Z,12.42
2022-10-22T21:49:04.344Z,12.43
2022-10-22T21:51:33.386Z,12.45
2022-10-22T21:54:01.254Z,12.42
2022-10-22T21:56:32.513Z,12.43
2022-10-22T21:59:00.212Z,12.42
2022-10-22T22:01:28.495Z,12.44
2022-10-22T22:03:56.247Z,12.42
2022-10-22T22:06:29.519Z,12.44
2022-10-22T22:09:00.226Z,12.42
2022-10-22T22:11:29.104Z,12.44
2022-10-22T22:13:57.223Z,12.45
2022-10-22T22:16:28.445Z,12.44
2022-10-22T22:18:57.523Z,12.43
2022-10-22T22:21:26.419Z,12.45
2022-10-22T22:23:53.987Z,12.45
2022-10-22T22:26:28.463Z,12.38
2022-10-22T22:28:58.333Z,12.41
2022-10-22T22:31:28.343Z,12.42
2022-10-22T22:33:59.319Z,12.40
2022-10-22T22:36:28.679Z,12.42
2022-10-22T22:38:57.416Z,12.47
2022-10-22T22:41:24.862Z,12.47
2022-10-22T22:43:52.480Z,12.49
2022-10-22T22:46:20.123Z,12.49
2022-10-22T22:48:48.581Z,12.50
2022-10-22T22:51:17.215Z,12.47
2022-10-22T22:53:46.211Z,12.45
2022-10-22T22:56:16.679Z,12.43
2022-10-22T22:58:45.074Z,12.43
2022-10-22T23:01:15.205Z,12.42
2022-10-22T23:03:44.287Z,12.41
2022-10-22T23:06:12.470Z,12.34
2022-10-22T23:08:40.600Z,12.36
2022-10-22T23:11:12.724Z,12.34
2022-10-22T23:13:42.062Z,12.33
2022-10-22T23:16:14.060Z,12.29
2022-10-22T23:18:41.783Z,12.31
2022-10-22T23:21:14.086Z,12.30
2022-10-22T23:23:44.654Z,12.31
2022-10-22T23:26:15.262Z,12.29
2022-10-22T23:28:42.809Z,12.27
2022-10-22T23:31:13.623Z,12.25
2022-10-22T23:33:41.408Z,12.06
2022-10-22T23:36:09.096Z,12.19
2022-10-22T23:38:38.743Z,12.18
2022-10-22T23:41:07.314Z,12.12
2022-10-22T23:43:39.017Z,12.16
2022-10-22T23:46:08.189Z,12.13
2022-10-22T23:48:36.362Z,12.11
2022-10-22T23:51:08.662Z,12.07
2022-10-22T23:53:36.428Z,11.97
2022-10-22T23:56:06.023Z,11.99
2022-10-22T23:58:34.382Z,11.97
